createdAt,value
2019-04-06T00:00:57.294Z,12.97
2019-04-06T00:03:02.594Z,12.83
2019-04-06T00:05:09.208Z,12.40
2019-04-06T00:07:14.660Z,11.63
2019-04-06T00:09:19.935Z,12.37
2019-04-06T00:11:25.443Z,12.00
2019-04-06T00:13:30.826Z,12.73
2019-04-06T00:15:36.121Z,12.23
2019-04-06T00:17:41.417Z,12.30
2019-04-06T00:19:46.876Z,12.13
2019-04-06T00:21:52.067Z,12.13
2019-04-06T00:23:57.249Z,12.50
2019-04-06T00:26:02.475Z,12.13
2019-04-06T00:28:07.887Z,13.27
2019-04-06T00:30:14.500Z,12.47
2019-04-06T00:32:39.101Z,12.20
2019-04-06T00:34:43.958Z,12.70
2019-04-06T00:36:49.278Z,11.87
2019-04-06T00:38:54.249Z,11.97
2019-04-06T00:40:59.483Z,11.20
2019-04-06T00:43:04.735Z,12.03
2019-04-06T00:45:10.221Z,11.63
2019-04-06T00:47:15.417Z,12.17
2019-04-06T00:49:21.184Z,11.97
2019-04-06T00:51:26.396Z,12.47
2019-04-06T00:53:31.281Z,10.63
2019-04-06T00:55:36.358Z,11.67
2019-04-06T00:57:41.376Z,11.43
2019-04-06T00:59:46.547Z,10.33
2019-04-06T01:01:55.467Z,11.43
2019-04-06T01:04:04.121Z,10.90
2019-04-06T01:06:11.262Z,11.77
2019-04-06T01:08:17.773Z,10.83
2019-04-06T01:10:22.912Z,11.07
2019-04-06T01:12:28.063Z,11.17
2019-04-06T01:14:32.923Z,11.27
2019-04-06T01:16:37.907Z,11.50
2019-04-06T01:18:43.532Z,10.70
2019-04-06T01:20:48.402Z,10.87
2019-04-06T01:22:53.581Z,10.87
2019-04-06T01:24:58.844Z,9.97
2019-04-06T01:27:03.874Z,10.67
2019-04-06T01:29:08.736Z,11.03
2019-04-06T01:31:14.021Z,10.30
2019-04-06T01:33:19.584Z,11.73
2019-04-06T01:35:24.950Z,10.70
2019-04-06T01:37:30.497Z,10.93
2019-04-06T01:39:36.277Z,10.33
2019-04-06T01:41:41.740Z,11.47
2019-04-06T01:43:47.038Z,11.13
2019-04-06T01:45:52.291Z,10.57
2019-04-06T01:47:58.006Z,10.83
2019-04-06T01:50:03.198Z,10.17
2019-04-06T01:52:08.410Z,10.17
2019-04-06T01:54:14.275Z,10.50
2019-04-06T01:56:19.896Z,10.03
2019-04-06T01:58:24.803Z,9.73
2019-04-06T02:00:31.929Z,10.07
2019-04-06T02:02:38.566Z,10.10
2019-04-06T02:04:43.758Z,10.40
2019-04-06T02:06:48.615Z,9.77
2019-04-06T02:08:54.265Z,9.87
2019-04-06T02:10:59.553Z,10.83
2019-04-06T02:13:04.404Z,9.60
2019-04-06T02:15:10.426Z,9.13
2019-04-06T02:17:15.912Z,11.20
2019-04-06T02:19:21.377Z,12.20
2019-04-06T02:21:27.233Z,10.13
2019-04-06T02:23:32.672Z,10.00
2019-04-06T02:25:39.096Z,9.83
2019-04-06T02:27:44.406Z,8.97
2019-04-06T02:30:08.621Z,9.20
2019-04-06T02:32:26.776Z,9.67
2019-04-06T02:34:40.081Z,9.63
2019-04-06T02:37:02.951Z,9.43
2019-04-06T02:39:34.200Z,9.53
2019-04-06T02:41:48.153Z,9.70
2019-04-06T02:43:53.332Z,9.83
2019-04-06T02:45:58.606Z,10.13
2019-04-06T02:48:03.698Z,10.40
2019-04-06T02:50:08.947Z,9.93
2019-04-06T02:52:13.893Z,9.93
2019-04-06T02:54:19.410Z,9.80
2019-04-06T02:56:24.705Z,10.37
2019-04-06T02:58:30.094Z,9.53
2019-04-06T03:00:35.194Z,9.97
2019-04-06T03:02:40.393Z,10.60
2019-04-06T03:04:46.077Z,10.10
2019-04-06T03:06:52.048Z,9.70
2019-04-06T03:08:57.498Z,9.63
2019-04-06T03:11:03.357Z,9.73
2019-04-06T03:13:09.047Z,9.77
2019-04-06T03:15:14.296Z,9.60
2019-04-06T03:17:19.466Z,9.67
2019-04-06T03:19:24.645Z,9.60
2019-04-06T03:21:29.756Z,9.27
2019-04-06T03:23:49.085Z,8.93
2019-04-06T03:25:41.865Z,9.83
2019-04-06T03:27:47.071Z,10.50
2019-04-06T03:29:58.171Z,9.57
2019-04-06T03:31:59.502Z,9.43
2019-04-06T03:34:04.587Z,8.93
2019-04-06T03:36:10.220Z,9.80
2019-04-06T03:38:15.385Z,9.27
2019-04-06T03:40:21.132Z,9.00
2019-04-06T03:42:26.306Z,9.83
2019-04-06T03:44:31.799Z,9.70
2019-04-06T03:46:36.869Z,10.00
2019-04-06T03:48:42.076Z,9.00
2019-04-06T03:50:46.971Z,9.37
2019-04-06T03:52:52.596Z,10.00
2019-04-06T03:54:57.559Z,9.57
2019-04-06T03:57:13.630Z,10.13
2019-04-06T03:59:09.969Z,9.87
2019-04-06T04:01:15.849Z,9.90
2019-04-06T04:03:20.739Z,9.20
2019-04-06T04:05:25.594Z,9.40
2019-04-06T04:07:30.730Z,9.53
2019-04-06T04:09:36.678Z,9.80
2019-04-06T04:11:42.822Z,9.73
2019-04-06T04:13:47.751Z,9.50
2019-04-06T04:15:56.328Z,9.97
2019-04-06T04:17:59.819Z,10.73
2019-04-06T04:20:05.860Z,10.87
2019-04-06T04:22:11.466Z,9.93
2019-04-06T04:24:16.660Z,9.63
2019-04-06T04:26:21.964Z,9.77
2019-04-06T04:28:27.450Z,9.63
2019-04-06T04:30:34.150Z,9.47
2019-04-06T04:32:39.611Z,9.47
2019-04-06T04:34:44.827Z,9.00
2019-04-06T04:36:50.142Z,9.43
2019-04-06T04:38:55.059Z,8.60
2019-04-06T04:41:00.935Z,9.30
2019-04-06T04:43:06.203Z,9.23
2019-04-06T04:45:12.834Z,9.50
2019-04-06T04:47:17.706Z,10.23
2019-04-06T04:49:23.178Z,9.87
2019-04-06T04:51:30.683Z,11.40
2019-04-06T04:53:35.563Z,10.63
2019-04-06T04:55:40.890Z,9.60
2019-04-06T04:57:45.822Z,9.80
2019-04-06T04:59:51.006Z,10.17
2019-04-06T05:01:56.146Z,10.37
2019-04-06T05:04:01.023Z,9.23
2019-04-06T05:06:06.085Z,8.50
2019-04-06T05:08:11.557Z,9.07
2019-04-06T05:10:17.061Z,8.90
2019-04-06T05:12:22.786Z,9.53
2019-04-06T05:15:00.507Z,9.03
2019-04-06T05:17:05.498Z,8.33
2019-04-06T05:19:10.380Z,9.27
2019-04-06T05:21:16.484Z,8.47
2019-04-06T05:23:21.688Z,8.87
2019-04-06T05:25:26.939Z,9.47
2019-04-06T05:27:31.845Z,8.07
2019-04-06T05:29:37.316Z,8.83
2019-04-06T05:31:42.559Z,9.20
2019-04-06T05:33:47.707Z,8.77
2019-04-06T05:35:53.241Z,8.80
2019-04-06T05:37:58.448Z,9.17
2019-04-06T05:40:04.293Z,9.63
2019-04-06T05:42:09.885Z,9.60
2019-04-06T05:44:15.346Z,9.60
2019-04-06T05:46:20.216Z,9.57
2019-04-06T05:48:25.959Z,9.33
2019-04-06T05:50:31.409Z,10.70
2019-04-06T05:52:37.044Z,11.30
2019-04-06T05:54:42.547Z,10.00
2019-04-06T05:56:47.685Z,10.80
2019-04-06T05:58:52.803Z,10.87
2019-04-06T06:00:58.302Z,12.20
2019-04-06T06:03:03.484Z,12.80
2019-04-06T06:05:10.333Z,10.93
2019-04-06T06:07:15.253Z,11.97
2019-04-06T06:09:20.388Z,11.80
2019-04-06T06:11:25.721Z,11.43
2019-04-06T06:13:30.580Z,12.03
2019-04-06T06:15:35.771Z,11.57
2019-04-06T06:17:40.694Z,10.97
2019-04-06T06:19:45.643Z,10.00
2019-04-06T06:21:51.206Z,10.60
2019-04-06T06:23:56.732Z,11.63
2019-04-06T06:26:01.906Z,12.40
2019-04-06T06:28:14.644Z,13.43
2019-04-06T06:30:15.431Z,12.83
2019-04-06T06:32:20.511Z,13.83
2019-04-06T06:34:25.605Z,13.90
2019-04-06T06:36:30.886Z,14.77
2019-04-06T06:38:36.190Z,14.23
2019-04-06T06:40:41.267Z,14.93
2019-04-06T06:42:46.737Z,14.43
2019-04-06T06:44:52.163Z,14.07
2019-04-06T06:46:57.493Z,12.97
2019-04-06T06:49:02.688Z,13.37
2019-04-06T06:51:08.038Z,13.87
2019-04-06T06:53:12.902Z,14.27
2019-04-06T06:55:18.205Z,14.70
2019-04-06T06:57:23.115Z,14.27
2019-04-06T06:59:28.246Z,15.23
2019-04-06T07:01:33.688Z,17.97
2019-04-06T07:03:38.828Z,17.30
2019-04-06T07:05:43.702Z,17.97
2019-04-06T07:07:48.918Z,17.77
2019-04-06T07:10:04.378Z,18.00
2019-04-06T07:12:02.217Z,20.87
2019-04-06T07:14:07.743Z,20.03
2019-04-06T07:16:12.958Z,17.93
2019-04-06T07:18:18.485Z,16.63
2019-04-06T07:20:23.649Z,16.83
2019-04-06T07:22:28.514Z,15.83
2019-04-06T07:24:33.391Z,17.07
2019-04-06T07:26:41.046Z,17.00
2019-04-06T07:28:45.153Z,17.37
2019-04-06T07:30:50.362Z,17.37
2019-04-06T07:32:55.843Z,15.07
2019-04-06T07:35:00.770Z,14.20
2019-04-06T07:37:06.647Z,13.27
2019-04-06T07:39:12.079Z,13.40
2019-04-06T07:41:17.425Z,13.53
2019-04-06T07:43:22.248Z,17.10
2019-04-06T07:45:27.345Z,17.03
2019-04-06T07:47:32.223Z,14.60
2019-04-06T07:49:37.160Z,15.33
2019-04-06T07:51:43.110Z,15.10
2019-04-06T07:53:48.927Z,14.80
2019-04-06T07:55:54.138Z,14.93
2019-04-06T07:57:59.549Z,15.30
2019-04-06T08:00:05.369Z,15.83
2019-04-06T08:02:11.104Z,15.70
2019-04-06T08:04:15.985Z,14.73
2019-04-06T08:06:21.513Z,14.63
2019-04-06T08:08:28.685Z,15.37
2019-04-06T08:10:34.096Z,14.47
2019-04-06T08:12:39.340Z,16.17
2019-04-06T08:14:44.902Z,16.20
2019-04-06T08:16:50.158Z,17.23
2019-04-06T08:18:55.046Z,17.33
2019-04-06T08:20:59.924Z,16.60
2019-04-06T08:23:04.897Z,17.50
2019-04-06T08:25:10.172Z,17.60
2019-04-06T08:27:15.723Z,20.60
2019-04-06T08:29:21.430Z,20.87
2019-04-06T08:31:26.541Z,22.17
2019-04-06T08:33:31.997Z,22.03
2019-04-06T08:35:37.359Z,23.83
2019-04-06T08:37:42.252Z,23.80
2019-04-06T08:39:47.148Z,25.33
2019-04-06T08:41:52.616Z,26.40
2019-04-06T08:43:58.376Z,27.43
2019-04-06T08:46:03.259Z,26.23
2019-04-06T08:48:08.518Z,28.53
2019-04-06T08:50:14.100Z,26.73
2019-04-06T08:52:19.500Z,26.77
2019-04-06T08:54:24.783Z,26.40
2019-04-06T08:56:29.933Z,25.93
2019-04-06T08:58:35.675Z,24.20
2019-04-06T09:00:41.350Z,24.77
2019-04-06T09:02:46.397Z,25.83
2019-04-06T09:04:51.425Z,25.33
2019-04-06T09:06:56.708Z,26.60
2019-04-06T09:09:01.585Z,25.47
2019-04-06T09:11:06.554Z,26.03
2019-04-06T09:13:11.504Z,24.47
2019-04-06T09:15:18.447Z,26.97
2019-04-06T09:17:23.734Z,24.27
2019-04-06T09:19:29.306Z,26.13
2019-04-06T09:21:35.575Z,25.80
2019-04-06T09:23:41.602Z,26.93
2019-04-06T09:25:47.186Z,25.60
2019-04-06T09:27:52.744Z,25.60
2019-04-06T09:29:57.893Z,25.97
2019-04-06T09:32:03.079Z,25.43
2019-04-06T09:34:07.950Z,26.80
2019-04-06T09:36:13.256Z,25.03
2019-04-06T09:38:21.596Z,26.20
2019-04-06T09:40:27.723Z,23.27
2019-04-06T09:42:33.323Z,24.37
2019-04-06T09:44:47.337Z,25.33
2019-04-06T09:47:00.961Z,25.23
2019-04-06T09:49:26.321Z,23.97
2019-04-06T09:51:59.356Z,25.10
2019-04-06T09:54:15.097Z,23.43
2019-04-06T09:56:45.074Z,23.90
2019-04-06T09:59:08.977Z,23.20
2019-04-06T10:01:38.120Z,24.07
2019-04-06T10:04:04.298Z,25.13
2019-04-06T10:06:47.016Z,24.40
2019-04-06T10:09:05.489Z,23.47
2019-04-06T10:11:29.490Z,24.30
2019-04-06T10:14:11.887Z,24.17
2019-04-06T10:16:25.144Z,23.33
2019-04-06T10:18:39.128Z,22.93
2019-04-06T10:20:59.196Z,22.63
2019-04-06T10:23:31.153Z,23.10
2019-04-06T10:25:45.066Z,23.80
2019-04-06T10:28:02.657Z,24.13
2019-04-06T10:30:45.809Z,23.73
2019-04-06T10:32:59.642Z,23.23
2019-04-06T10:35:30.014Z,22.93
2019-04-06T10:37:46.184Z,22.70
2019-04-06T10:40:13.282Z,22.40
2019-04-06T10:42:42.975Z,22.93
2019-04-06T10:45:22.412Z,23.87
2019-04-06T10:47:48.759Z,22.30
2019-04-06T10:50:04.204Z,23.63
2019-04-06T10:52:22.541Z,22.27
2019-04-06T10:54:48.686Z,22.50
2019-04-06T10:57:15.733Z,23.70
2019-04-06T10:59:43.260Z,23.77
2019-04-06T11:02:19.867Z,22.70
2019-04-06T11:04:32.171Z,22.10
2019-04-06T11:06:56.490Z,22.60
2019-04-06T11:09:17.918Z,22.83
2019-04-06T11:11:51.192Z,22.40
2019-04-06T11:14:10.851Z,22.90
2019-04-06T11:16:38.028Z,23.43
2019-04-06T11:19:00.554Z,21.30
2019-04-06T11:21:19.565Z,20.03
2019-04-06T11:23:44.455Z,23.23
2019-04-06T11:26:07.200Z,21.40
2019-04-06T11:28:30.383Z,21.37
2019-04-06T11:30:42.059Z,21.10
2019-04-06T11:32:58.152Z,22.53
2019-04-06T11:35:40.342Z,21.47
2019-04-06T11:37:54.832Z,20.50
2019-04-06T11:40:17.361Z,21.90
2019-04-06T11:42:47.219Z,21.53
2019-04-06T11:45:23.043Z,20.70
2019-04-06T11:47:47.477Z,20.77
2019-04-06T11:50:18.283Z,20.27
2019-04-06T11:52:41.262Z,20.27
2019-04-06T11:54:58.804Z,20.73
2019-04-06T11:57:08.755Z,20.10
2019-04-06T11:59:30.585Z,20.80
2019-04-06T12:02:00.921Z,19.93
2019-04-06T12:04:16.187Z,20.10
2019-04-06T12:06:26.242Z,20.87
2019-04-06T12:08:50.439Z,20.00
2019-04-06T12:11:14.090Z,20.47
2019-04-06T12:13:35.950Z,20.23
2019-04-06T12:15:59.215Z,19.27
2019-04-06T12:18:26.544Z,20.13
2019-04-06T12:20:38.491Z,19.57
2019-04-06T12:22:55.522Z,20.27
2019-04-06T12:25:14.513Z,20.30
2019-04-06T12:27:31.190Z,19.13
2019-04-06T12:29:58.124Z,21.63
2019-04-06T12:32:21.230Z,20.40
2019-04-06T12:35:03.354Z,20.53
2019-04-06T12:37:19.103Z,20.27
2019-04-06T12:39:28.273Z,20.47
2019-04-06T12:42:00.681Z,18.83
2019-04-06T12:44:17.757Z,19.10
2019-04-06T12:46:41.974Z,17.70
2019-04-06T12:49:15.061Z,19.33
2019-04-06T12:51:29.047Z,17.20
2019-04-06T12:53:52.448Z,17.73
2019-04-06T12:56:21.935Z,17.67
2019-04-06T12:58:40.734Z,17.00
2019-04-06T13:01:04.523Z,18.47
2019-04-06T13:03:30.161Z,16.73
2019-04-06T13:05:45.101Z,16.93
2019-04-06T13:08:27.302Z,17.30
2019-04-06T13:10:39.364Z,14.93
2019-04-06T13:13:02.189Z,15.40
2019-04-06T13:15:19.148Z,16.10
2019-04-06T13:17:43.748Z,15.50
2019-04-06T13:20:00.098Z,16.50
2019-04-06T13:22:36.673Z,16.93
2019-04-06T13:25:04.849Z,15.97
2019-04-06T13:27:32.843Z,16.40
2019-04-06T13:29:56.087Z,16.80
2019-04-06T13:32:20.486Z,16.90
2019-04-06T13:34:46.820Z,15.20
2019-04-06T13:37:02.142Z,14.87
2019-04-06T13:39:15.313Z,14.57
2019-04-06T13:41:44.249Z,15.50
2019-04-06T13:44:07.680Z,14.80
2019-04-06T13:46:30.983Z,16.17
2019-04-06T13:49:01.178Z,16.90
2019-04-06T13:51:28.585Z,17.27
2019-04-06T13:53:55.947Z,18.87
2019-04-06T13:56:35.089Z,17.57
2019-04-06T13:59:06.710Z,15.70
2019-04-06T14:01:19.825Z,17.83
2019-04-06T14:03:46.499Z,18.17
2019-04-06T14:06:00.306Z,17.67
2019-04-06T14:08:30.507Z,17.43
2019-04-06T14:10:53.601Z,17.20
2019-04-06T14:13:26.933Z,17.10
2019-04-06T14:16:09.907Z,15.33
2019-04-06T14:18:32.789Z,16.27
2019-04-06T14:20:56.950Z,15.27
2019-04-06T14:23:11.428Z,14.50
2019-04-06T14:25:23.695Z,14.83
2019-04-06T14:27:39.079Z,13.87
2019-04-06T14:30:03.176Z,14.07
2019-04-06T14:32:26.491Z,14.40
2019-04-06T14:34:49.525Z,14.60
2019-04-06T14:37:14.082Z,13.10
2019-04-06T14:39:26.562Z,14.47
2019-04-06T14:41:49.832Z,14.53
2019-04-06T14:44:11.445Z,14.50
2019-04-06T14:46:31.256Z,13.63
2019-04-06T14:49:22.457Z,13.63
2019-04-06T14:51:23.956Z,14.57
2019-04-06T14:53:51.797Z,12.90
2019-04-06T14:56:15.669Z,12.77
2019-04-06T14:58:39.156Z,12.33
2019-04-06T15:00:52.103Z,11.40
2019-04-06T15:03:28.008Z,12.20
2019-04-06T15:05:48.873Z,13.17
2019-04-06T15:08:11.820Z,14.00
2019-04-06T15:10:35.991Z,12.33
2019-04-06T15:12:59.110Z,12.57
2019-04-06T15:15:21.533Z,13.57
2019-04-06T15:17:39.114Z,11.03
2019-04-06T15:19:50.522Z,11.87
2019-04-06T15:22:03.870Z,12.03
2019-04-06T15:24:37.685Z,11.10
2019-04-06T15:26:54.392Z,12.13
2019-04-06T15:29:24.625Z,18.03
2019-04-06T15:31:51.046Z,10.70
2019-04-06T15:34:23.431Z,11.73
2019-04-06T15:36:47.474Z,14.73
2019-04-06T15:39:03.775Z,11.57
2019-04-06T15:41:21.467Z,11.43
2019-04-06T15:44:01.411Z,11.17
2019-04-06T15:46:16.195Z,10.83
2019-04-06T15:48:41.167Z,10.43
2019-04-06T15:50:54.624Z,10.97
2019-04-06T15:53:18.455Z,10.37
2019-04-06T15:55:41.645Z,12.00
2019-04-06T15:58:14.708Z,10.00
2019-04-06T16:00:34.543Z,9.80
2019-04-06T16:03:14.081Z,9.83
2019-04-06T16:05:25.067Z,9.73
2019-04-06T16:08:04.607Z,10.07
2019-04-06T16:10:29.153Z,10.33
2019-04-06T16:12:42.140Z,85.20
2019-04-06T16:14:57.738Z,31.43
2019-04-06T16:17:14.441Z,37.80
2019-04-06T16:19:44.421Z,19.87
2019-04-06T16:22:14.187Z,41.47
2019-04-06T16:24:37.321Z,41.07
2019-04-06T16:27:04.854Z,15.03
2019-04-06T16:29:25.061Z,11.23
2019-04-06T16:31:47.643Z,10.23
2019-04-06T16:34:06.666Z,10.10
2019-04-06T16:36:17.433Z,9.40
2019-04-06T16:38:40.108Z,9.10
2019-04-06T16:41:02.823Z,10.70
2019-04-06T16:43:18.171Z,8.23
2019-04-06T16:45:29.837Z,7.40
2019-04-06T16:47:45.661Z,7.97
2019-04-06T16:50:14.759Z,11.00
2019-04-06T16:52:37.982Z,15.13
2019-04-06T16:55:02.276Z,11.30
2019-04-06T16:57:21.674Z,15.57
2019-04-06T16:59:37.501Z,14.20
2019-04-06T17:02:22.883Z,14.70
2019-04-06T17:04:31.500Z,15.40
2019-04-06T17:06:49.882Z,11.23
2019-04-06T17:09:08.927Z,8.73
2019-04-06T17:11:33.702Z,9.70
2019-04-06T17:14:03.363Z,8.63
2019-04-06T17:16:25.531Z,7.57
2019-04-06T17:18:43.963Z,7.47
2019-04-06T17:20:54.459Z,8.27
2019-04-06T17:23:11.778Z,8.00
2019-04-06T17:25:25.644Z,8.83
2019-04-06T17:27:50.732Z,8.37
2019-04-06T17:30:07.468Z,8.27
2019-04-06T17:32:35.483Z,8.63
2019-04-06T17:34:52.785Z,8.90
2019-04-06T17:37:09.217Z,8.43
2019-04-06T17:39:22.473Z,7.70
2019-04-06T17:42:05.046Z,8.37
2019-04-06T17:44:22.231Z,8.77
2019-04-06T17:46:50.384Z,8.00
2019-04-06T17:49:24.757Z,9.23
2019-04-06T17:51:40.845Z,8.60
2019-04-06T17:53:51.825Z,8.53
2019-04-06T17:56:25.223Z,8.80
2019-04-06T17:58:59.368Z,10.27
2019-04-06T18:01:13.680Z,9.50
2019-04-06T18:03:44.201Z,9.77
2019-04-06T18:06:07.309Z,12.47
2019-04-06T18:08:31.287Z,11.07
2019-04-06T18:10:43.629Z,9.80
2019-04-06T18:13:11.335Z,11.23
2019-04-06T18:15:16.800Z,10.93
2019-04-06T18:17:22.320Z,10.13
2019-04-06T18:19:28.149Z,10.27
2019-04-06T18:21:33.384Z,10.97
2019-04-06T18:23:38.580Z,11.00
2019-04-06T18:25:44.038Z,10.47
2019-04-06T18:27:49.779Z,10.37
2019-04-06T18:29:54.642Z,10.73
2019-04-06T18:32:21.619Z,10.23
2019-04-06T18:34:45.921Z,10.90
2019-04-06T18:37:04.239Z,10.57
2019-04-06T18:39:10.364Z,10.00
2019-04-06T18:41:15.891Z,10.27
2019-04-06T18:43:21.049Z,10.87
2019-04-06T18:45:28.810Z,11.77
2019-04-06T18:47:34.163Z,11.27
2019-04-06T18:49:39.833Z,11.27
2019-04-06T18:51:45.659Z,10.67
2019-04-06T18:53:51.368Z,11.23
2019-04-06T18:55:56.284Z,12.47
2019-04-06T18:58:10.699Z,11.23
2019-04-06T19:00:11.870Z,11.07
2019-04-06T19:02:17.428Z,10.40
2019-04-06T19:04:22.816Z,11.23
2019-04-06T19:06:27.722Z,11.33
2019-04-06T19:08:32.909Z,11.00
2019-04-06T19:10:38.602Z,11.30
2019-04-06T19:12:44.263Z,10.90
2019-04-06T19:14:49.634Z,11.43
2019-04-06T19:16:55.275Z,11.30
2019-04-06T19:19:01.353Z,11.23
2019-04-06T19:21:07.334Z,11.67
2019-04-06T19:23:12.907Z,11.57
2019-04-06T19:25:18.282Z,11.80
2019-04-06T19:27:23.253Z,12.03
2019-04-06T19:29:28.210Z,12.10
2019-04-06T19:31:33.396Z,12.70
2019-04-06T19:33:38.592Z,11.83
2019-04-06T19:35:43.452Z,11.23
2019-04-06T19:37:48.675Z,12.27
2019-04-06T19:39:53.554Z,11.67
2019-04-06T19:41:59.255Z,12.27
2019-04-06T19:44:04.730Z,12.57
2019-04-06T19:46:09.664Z,12.40
2019-04-06T19:48:15.251Z,13.57
2019-04-06T19:50:20.383Z,13.73
2019-04-06T19:52:25.954Z,12.70
2019-04-06T19:54:31.269Z,12.83
2019-04-06T19:56:36.794Z,12.83
2019-04-06T19:58:42.596Z,12.87
2019-04-06T20:00:48.759Z,13.53
2019-04-06T20:02:53.996Z,12.50
2019-04-06T20:04:59.153Z,12.70
2019-04-06T20:07:04.138Z,11.77
2019-04-06T20:09:09.605Z,12.50
2019-04-06T20:11:14.542Z,11.43
2019-04-06T20:13:20.200Z,12.17
2019-04-06T20:15:25.529Z,11.83
2019-04-06T20:17:30.571Z,12.50
2019-04-06T20:19:35.530Z,12.10
2019-04-06T20:21:40.994Z,12.57
2019-04-06T20:23:46.219Z,13.27
2019-04-06T20:25:51.964Z,13.67
2019-04-06T20:27:57.859Z,12.33
2019-04-06T20:30:03.311Z,13.50
2019-04-06T20:32:08.453Z,13.23
2019-04-06T20:34:13.412Z,13.00
2019-04-06T20:36:18.710Z,12.37
2019-04-06T20:38:24.623Z,12.83
2019-04-06T20:40:30.099Z,12.13
2019-04-06T20:42:35.717Z,12.47
2019-04-06T20:44:40.954Z,12.60
2019-04-06T20:46:46.346Z,12.67
2019-04-06T20:48:51.508Z,13.53
2019-04-06T20:50:56.638Z,12.93
2019-04-06T20:53:01.748Z,13.67
2019-04-06T20:55:07.216Z,13.93
2019-04-06T20:57:12.363Z,13.33
2019-04-06T20:59:26.165Z,13.10
2019-04-06T21:01:31.146Z,13.47
2019-04-06T21:03:36.321Z,13.57
2019-04-06T21:05:41.391Z,13.60
2019-04-06T21:07:46.330Z,11.70
2019-04-06T21:09:51.292Z,14.07
2019-04-06T21:11:56.936Z,12.83
2019-04-06T21:14:02.151Z,14.63
2019-04-06T21:16:07.754Z,13.47
2019-04-06T21:18:12.624Z,13.37
2019-04-06T21:20:18.290Z,13.10
2019-04-06T21:22:23.906Z,13.20
2019-04-06T21:24:29.171Z,14.37
2019-04-06T21:26:34.180Z,14.37
2019-04-06T21:28:39.386Z,13.90
2019-04-06T21:30:45.139Z,13.43
2019-04-06T21:32:50.303Z,14.37
2019-04-06T21:34:56.174Z,13.33
2019-04-06T21:37:01.181Z,13.73
2019-04-06T21:39:08.411Z,14.40
2019-04-06T21:41:13.748Z,13.53
2019-04-06T21:43:18.855Z,14.63
2019-04-06T21:45:23.801Z,14.00
2019-04-06T21:47:28.753Z,13.50
2019-04-06T21:49:34.413Z,13.43
2019-04-06T21:51:40.184Z,14.67
2019-04-06T21:53:46.763Z,14.13
2019-04-06T21:56:01.693Z,14.93
2019-04-06T21:57:59.176Z,14.63
2019-04-06T22:00:06.260Z,14.90
2019-04-06T22:02:11.631Z,15.30
2019-04-06T22:04:24.915Z,13.93
2019-04-06T22:06:25.662Z,14.83
2019-04-06T22:08:31.174Z,14.30
2019-04-06T22:10:36.990Z,14.67
2019-04-06T22:12:42.335Z,15.03
2019-04-06T22:14:47.508Z,14.83
2019-04-06T22:16:52.431Z,14.03
2019-04-06T22:18:57.909Z,14.20
2019-04-06T22:21:03.053Z,14.77
2019-04-06T22:23:08.325Z,14.73
2019-04-06T22:25:13.405Z,15.93
2019-04-06T22:27:18.588Z,17.67
2019-04-06T22:29:23.885Z,18.07
2019-04-06T22:31:29.139Z,17.87
2019-04-06T22:33:34.415Z,18.43
2019-04-06T22:35:39.229Z,17.30
2019-04-06T22:37:44.619Z,16.83
2019-04-06T22:39:49.773Z,18.50
2019-04-06T22:41:54.861Z,18.03
2019-04-06T22:44:00.714Z,17.80
2019-04-06T22:46:05.754Z,16.37
2019-04-06T22:48:10.663Z,17.23
2019-04-06T22:50:16.446Z,17.47
2019-04-06T22:52:21.430Z,16.13
2019-04-06T22:54:26.828Z,15.67
2019-04-06T22:56:31.698Z,16.67
2019-04-06T22:58:37.815Z,15.67
2019-04-06T23:00:50.681Z,15.77
2019-04-06T23:03:14.976Z,15.07
2019-04-06T23:05:28.880Z,16.07
2019-04-06T23:07:35.036Z,16.83
2019-04-06T23:09:39.986Z,17.63
2019-04-06T23:11:45.867Z,15.93
2019-04-06T23:13:51.853Z,16.00
2019-04-06T23:15:57.670Z,16.67
2019-04-06T23:18:02.743Z,15.63
2019-04-06T23:20:08.362Z,16.23
2019-04-06T23:22:14.230Z,16.57
2019-04-06T23:24:19.392Z,15.87
2019-04-06T23:26:25.020Z,16.47
2019-04-06T23:28:30.594Z,17.73
2019-04-06T23:30:35.722Z,15.50
2019-04-06T23:32:41.100Z,15.67
2019-04-06T23:34:57.359Z,16.43
2019-04-06T23:36:53.070Z,16.57
2019-04-06T23:38:58.255Z,15.80
2019-04-06T23:41:04.095Z,15.77
2019-04-06T23:43:09.705Z,16.50
2019-04-06T23:45:15.145Z,16.07
2019-04-06T23:47:20.100Z,17.00
2019-04-06T23:49:25.073Z,17.20
2019-04-06T23:51:30.464Z,16.60
2019-04-06T23:53:36.037Z,15.77
2019-04-06T23:55:41.245Z,16.53
2019-04-06T23:57:46.782Z,16.10
2019-04-06T23:59:52.774Z,14.90
